Time;durP1;ratioP1;P1;durP2;ratioP2;P2;SDS_P1;SDS_P2;PMS_P1;PMS_P2;Temp;Humidity;BMP_temperature;BMP_pressure;BME280_temperature;BME280_humidity;BME280_pressure;Samples;Min_cycle;Max_cycle;Signal;HPM_P1;HPM_P2
2022/12/21 00:01:34;;;;;;;;;;;;;;;3.71;59.35;101269.31;5333289;32;33927;-72
2022/12/21 00:04:36;;;;;;;;;;;;;;;3.70;59.26;101282.31;5332216;32;34719;-76
2022/12/21 00:07:38;;;;;;;;;;;;;;;3.51;59.89;101286.59;5322977;32;34411;-72
2022/12/21 00:10:40;;;;;;;;;;;;;;;4.24;57.51;101276.38;5341613;32;33592;-73
2022/12/21 00:13:42;;;;;;;;;;;;;;;4.33;57.18;101271.19;5322067;32;33261;-71
2022/12/21 00:16:44;;;;;;;;;;;;;;;3.83;57.69;101275.44;5338610;32;33611;-75
2022/12/21 00:19:46;;;;;;;;;;;;;;;4.30;56.78;101271.16;5323945;32;43633;-75
2022/12/21 00:22:48;;;;;;;;;;;;;;;4.43;56.94;101271.16;5333925;32;34511;-71
2022/12/21 00:25:50;;;;;;;;;;;;;;;3.91;58.24;101271.97;5336376;32;34294;-71
2022/12/21 00:28:56;;;;;;;;;;;;;;;4.14;56.56;101272.03;5320689;32;33752;-75
2022/12/21 00:31:58;;;;;;;;;;;;;;;3.81;58.01;101272.84;5335156;32;34893;-73
2022/12/21 00:35:00;;;;;;;;;;;;;;;4.59;56.14;101259.91;5321435;32;34519;-72
2022/12/21 00:38:02;;;;;;;;;;;;;;;3.65;58.79;101269.31;5339993;32;34510;-72
2022/12/21 00:41:05;;;;;;;;;;;;;;;3.18;59.38;101276.91;5322970;32;33037;-73
2022/12/21 00:44:07;;;;;;;;;;;;;;;3.81;58.12;101262.44;5330117;32;33899;-75
2022/12/21 00:47:09;;;;;;;;;;;;;;;4.12;56.48;101265.94;5333567;32;34746;-71
2022/12/21 00:50:11;;;;;;;;;;;;;;;3.87;58.11;101259.84;5318474;32;34015;-75
2022/12/21 00:53:16;;;;;;;;;;;;;;;4.10;56.63;101256.41;5322914;32;34705;-74
2022/12/21 00:56:18;;;;;;;;;;;;;;;3.76;57.41;101264.16;5324351;32;45319;-74
2022/12/21 00:59:20;;;;;;;;;;;;;;;3.67;58.79;101261.50;5339065;32;34237;-71
2022/12/21 01:02:22;;;;;;;;;;;;;;;3.37;59.74;101265.75;5323714;32;33233;-71
2022/12/21 01:05:27;;;;;;;;;;;;;;;3.72;58.73;101258.06;5326389;32;33957;-71
2022/12/21 01:08:29;;;;;;;;;;;;;;;4.33;56.83;101260.78;5338264;32;34362;-75
2022/12/21 01:11:31;;;;;;;;;;;;;;;3.98;56.68;101265.91;5321971;32;33999;-74
2022/12/21 01:14:32;;;;;;;;;;;;;;;3.05;60.30;101265.59;5339772;32;33356;-78
2022/12/21 01:17:34;;;;;;;;;;;;;;;3.26;59.99;101247.50;5322955;32;33967;-75
2022/12/21 01:20:40;;;;;;;;;;;;;;;3.64;58.76;101240.72;5339183;32;33788;-75
2022/12/21 01:23:42;;;;;;;;;;;;;;;3.78;57.90;101247.69;5321834;32;33853;-72
2022/12/21 01:26:44;;;;;;;;;;;;;;;3.44;59.55;101233.72;5324140;32;33301;-74
2022/12/21 01:29:46;;;;;;;;;;;;;;;3.62;59.01;101227.72;5337562;32;34187;-71
2022/12/21 01:32:47;;;;;;;;;;;;;;;3.68;58.49;101235.53;5317515;32;45906;-72
2022/12/21 01:35:49;;;;;;;;;;;;;;;3.66;58.41;101221.62;5336620;32;34016;-75
2022/12/21 01:38:51;;;;;;;;;;;;;;;4.59;55.60;101224.31;5322786;32;34461;-72
2022/12/21 01:41:54;;;;;;;;;;;;;;;4.66;55.43;101219.97;5339260;32;33958;-75
2022/12/21 01:44:59;;;;;;;;;;;;;;;3.96;57.07;101218.25;5310489;32;33745;-75
2022/12/21 01:48:03;;;;;;;;;;;;;;;3.30;59.27;101225.00;5321244;32;34298;-71
2022/12/21 01:51:05;;;;;;;;;;;;;;;3.11;59.72;101211.06;5323402;32;33847;-71
2022/12/21 01:54:12;;;;;;;;;;;;;;;3.48;59.00;101203.44;5316675;32;33823;-77
2022/12/21 01:57:14;;;;;;;;;;;;;;;3.98;57.96;101194.81;5337816;32;34586;-75
2022/12/21 02:00:16;;;;;;;;;;;;;;;4.09;57.13;101203.50;5322201;32;36636;-73
2022/12/21 02:03:20;;;;;;;;;;;;;;;3.79;58.26;101201.72;5336428;32;33782;-72
2022/12/21 02:06:32;;;;;;;;;;;;;;;3.63;57.90;101195.66;5312822;32;34927;-71
2022/12/21 02:09:35;;;;;;;;;;;;;;;3.76;58.49;101194.81;5321349;32;33287;-73
2022/12/21 02:12:37;;;;;;;;;;;;;;;3.09;59.45;101205.00;5339081;32;34491;-75
2022/12/21 02:15:43;;;;;;;;;;;;;;;2.92;60.31;101206.66;5323642;32;33775;-72
2022/12/21 02:18:45;;;;;;;;;;;;;;;3.58;58.99;101183.50;5335903;32;33619;-76
2022/12/21 02:21:54;;;;;;;;;;;;;;;3.36;58.28;101180.00;5322101;32;45345;-73
2022/12/21 02:25:09;;;;;;;;;;;;;;;3.54;58.89;101177.41;5322974;32;34018;-72
2022/12/21 02:28:11;;;;;;;;;;;;;;;3.26;59.38;101179.09;5336982;32;33868;-72
2022/12/21 02:31:19;;;;;;;;;;;;;;;3.30;59.74;101174.78;5321487;32;33523;-71
2022/12/21 02:34:28;;;;;;;;;;;;;;;3.42;58.43;101156.63;5334337;32;44684;-76
2022/12/21 02:37:43;;;;;;;;;;;;;;;3.34;59.11;101158.31;5323027;32;33388;-71
2022/12/21 02:40:45;;;;;;;;;;;;;;;3.37;58.21;101153.16;5330470;32;33829;-75
2022/12/21 02:44:14;;;;;;;;;;;;;;;3.68;57.86;101147.12;5336465;32;44634;-74
2022/12/21 02:47:18;;;;;;;;;;;;;;;3.89;55.84;101153.22;5325059;32;45192;-72
2022/12/21 02:50:22;;;;;;;;;;;;;;;3.92;57.02;101148.00;5331687;32;34054;-75
2022/12/21 02:53:28;;;;;;;;;;;;;;;4.12;55.93;101148.00;5313988;32;33792;-76
2022/12/21 02:56:30;;;;;;;;;;;;;;;3.36;58.11;101141.03;5332784;32;34775;-75
2022/12/21 02:59:34;;;;;;;;;;;;;;;3.67;57.91;101147.12;5332584;32;34238;-75
2022/12/21 03:02:43;;;;;;;;;;;;;;;3.50;58.55;101149.69;5322609;32;34021;-75
2022/12/21 03:05:45;;;;;;;;;;;;;;;3.71;57.07;101138.47;5340021;32;34202;-72
2022/12/21 03:08:47;;;;;;;;;;;;;;;3.27;59.27;101141.84;5322829;32;45707;-71
2022/12/21 03:12:04;;;;;;;;;;;;;;;3.47;57.71;101136.69;5341059;32;33883;-74
2022/12/21 03:15:24;;;;;;;;;;;;;;;2.60;59.64;101137.25;5312875;32;35177;-72
2022/12/21 03:18:45;;;;;;;;;;;;;;;3.56;57.14;101126.31;5323748;32;32135;-70
2022/12/21 03:21:47;;;;;;;;;;;;;;;3.63;57.37;101115.06;5340181;32;45657;-75
2022/12/21 03:24:53;;;;;;;;;;;;;;;3.38;58.64;101115.91;5325451;32;33869;-74
2022/12/21 03:27:55;;;;;;;;;;;;;;;3.40;58.45;101111.56;5338607;32;34679;-72
2022/12/21 03:31:05;;;;;;;;;;;;;;;3.25;59.09;101108.06;5319390;32;33961;-73
2022/12/21 03:34:09;;;;;;;;;;;;;;;3.15;58.44;101101.09;5320376;32;34929;-76
2022/12/21 03:37:14;;;;;;;;;;;;;;;4.15;56.43;101107.25;5339417;32;33804;-75
2022/12/21 03:40:18;;;;;;;;;;;;;;;3.81;56.37;101096.00;5323335;32;35021;-75
2022/12/21 03:43:33;;;;;;;;;;;;;;;3.02;58.11;101107.13;5337468;32;46762;-71
2022/12/21 03:46:55;;;;;;;;;;;;;;;3.15;57.93;101106.28;5324804;32;34026;-71
2022/12/21 03:49:58;;;;;;;;;;;;;;;2.74;59.38;101106.16;5322205;32;35893;-72
2022/12/21 03:53:18;;;;;;;;;;;;;;;3.24;58.25;101101.16;5321293;32;34083;-71
2022/12/21 03:56:22;;;;;;;;;;;;;;;3.16;58.77;101102.00;5323895;32;44562;-71
2022/12/21 03:59:24;;;;;;;;;;;;;;;2.78;59.70;101105.34;5341001;32;34647;-77
2022/12/21 04:02:33;;;;;;;;;;;;;;;2.92;59.16;101120.97;5322621;32;33310;-71
2022/12/21 04:05:35;;;;;;;;;;;;;;;2.86;58.66;101124.41;5327788;32;33876;-77
2022/12/21 04:08:37;;;;;;;;;;;;;;;3.33;58.31;101117.59;5336129;32;33823;-72
2022/12/21 04:14:59;;;;;;;;;;;;;;;3.40;55.40;101119.34;5340270;32;33990;-72
2022/12/21 04:18:01;;;;;;;;;;;;;;;3.18;56.35;101108.06;5324825;32;34242;-75
2022/12/21 04:21:03;;;;;;;;;;;;;;;3.20;57.22;101095.94;5338728;32;33854;-71
2022/12/21 04:30:46;;;;;;;;;;;;;;;4.39;53.13;101098.53;5337019;32;33814;-72
2022/12/21 04:33:47;;;;;;;;;;;;;;;3.30;56.49;101095.09;5319255;32;44846;-72
2022/12/21 04:40:10;;;;;;;;;;;;;;;2.46;58.07;101094.81;5329726;32;36047;-72
2022/12/21 04:43:12;;;;;;;;;;;;;;;3.16;56.37;101082.09;5323405;32;33166;-75
2022/12/21 04:46:15;;;;;;;;;;;;;;;3.80;54.69;101087.34;5338463;32;34012;-71
2022/12/21 04:49:17;;;;;;;;;;;;;;;3.42;54.93;101102.91;5320609;32;45785;-76
2022/12/21 04:52:19;;;;;;;;;;;;;;;4.26;52.36;101105.50;5316380;32;33932;-73
2022/12/21 04:55:21;;;;;;;;;;;;;;;3.30;55.86;101095.09;5324842;32;34269;-72
2022/12/21 04:58:23;;;;;;;;;;;;;;;3.48;55.09;101099.47;5318238;32;34212;-73
2022/12/21 05:01:25;;;;;;;;;;;;;;;3.19;55.98;101089.88;5330911;32;34141;-76
2022/12/21 05:04:27;;;;;;;;;;;;;;;3.52;55.34;101085.59;5323633;32;32888;-76
2022/12/21 05:07:29;;;;;;;;;;;;;;;3.30;55.00;101087.31;5339025;32;34915;-76
2022/12/21 05:10:30;;;;;;;;;;;;;;;3.42;54.87;101089.94;5323495;32;34529;-71
2022/12/21 05:13:32;;;;;;;;;;;;;;;3.95;53.24;101083.00;5339764;32;34286;-71
2022/12/21 05:16:34;;;;;;;;;;;;;;;4.00;53.24;101066.53;5324741;32;34473;-74
2022/12/21 05:19:36;;;;;;;;;;;;;;;3.93;53.09;101089.91;5317864;32;34030;-71
2022/12/21 05:22:38;;;;;;;;;;;;;;;3.13;54.27;101076.88;5333549;32;34409;-72
2022/12/21 05:25:40;;;;;;;;;;;;;;;2.81;55.25;101092.34;5323498;32;33794;-72
2022/12/21 05:28:43;;;;;;;;;;;;;;;2.94;54.65;101078.53;5338329;32;33941;-72
2022/12/21 05:31:45;;;;;;;;;;;;;;;2.89;54.06;101079.38;5320330;32;34402;-72
2022/12/21 05:34:47;;;;;;;;;;;;;;;3.53;52.43;101064.78;5321946;32;44917;-74
2022/12/21 05:37:48;;;;;;;;;;;;;;;3.51;52.81;101079.53;5309259;32;34538;-74
2022/12/21 05:40:51;;;;;;;;;;;;;;;3.46;52.50;101076.03;5330432;32;33978;-75
2022/12/21 05:43:53;;;;;;;;;;;;;;;2.55;54.76;101066.28;5331070;32;33915;-71
2022/12/21 05:46:55;;;;;;;;;;;;;;;2.79;54.64;101080.25;5314412;32;33361;-71
2022/12/21 05:49:57;;;;;;;;;;;;;;;3.08;54.17;101070.78;5337562;32;33232;-71
2022/12/21 05:52:59;;;;;;;;;;;;;;;4.05;51.90;101074.28;5304178;32;34536;-71
2022/12/21 05:56:01;;;;;;;;;;;;;;;3.97;51.92;101074.31;5336724;32;33643;-75
2022/12/21 05:59:03;;;;;;;;;;;;;;;3.97;52.23;101078.66;5323192;32;34580;-75
2022/12/21 06:02:05;;;;;;;;;;;;;;;3.74;52.62;101076.94;5328884;32;34013;-72
2022/12/21 06:05:07;;;;;;;;;;;;;;;2.98;54.47;101066.44;5336303;32;34172;-71
2022/12/21 06:08:09;;;;;;;;;;;;;;;2.69;55.33;101077.59;5311021;32;35515;-72
2022/12/21 06:11:13;;;;;;;;;;;;;;;3.49;53.36;101063.06;5338505;32;34054;-72
2022/12/21 06:14:15;;;;;;;;;;;;;;;4.19;51.61;101072.56;5322790;32;33402;-73
2022/12/21 06:17:16;;;;;;;;;;;;;;;3.40;53.43;101060.44;5340533;32;44844;-74
2022/12/21 06:20:18;;;;;;;;;;;;;;;3.31;53.92;101063.06;5322642;32;33232;-75
2022/12/21 06:23:20;;;;;;;;;;;;;;;3.34;54.12;101064.78;5328133;32;34622;-75
2022/12/21 06:26:22;;;;;;;;;;;;;;;2.38;57.22;101084.37;5336267;32;34201;-72
2022/12/21 06:29:24;;;;;;;;;;;;;;;3.14;55.09;101082.94;5323372;32;33726;-76
2022/12/21 06:32:26;;;;;;;;;;;;;;;4.15;52.10;101083.84;5337920;32;33359;-72
2022/12/21 06:35:28;;;;;;;;;;;;;;;3.47;52.95;101076.91;5322543;32;33900;-71
2022/12/21 06:38:30;;;;;;;;;;;;;;;3.27;54.08;101071.69;5332225;32;33834;-77
2022/12/21 06:41:32;;;;;;;;;;;;;;;2.91;55.56;101070.75;5323649;32;34227;-74
2022/12/21 06:44:34;;;;;;;;;;;;;;;2.76;56.14;101067.22;5327084;32;33262;-71
2022/12/21 06:47:36;;;;;;;;;;;;;;;3.05;56.16;101068.19;5322674;32;32914;-72
2022/12/21 06:50:38;;;;;;;;;;;;;;;3.05;55.51;101060.41;5302752;32;33620;-72
2022/12/21 06:53:41;;;;;;;;;;;;;;;2.81;56.29;101068.97;5331917;32;34238;-74
2022/12/21 06:56:43;;;;;;;;;;;;;;;4.37;52.18;101053.41;5324352;32;33439;-75
2022/12/21 06:59:45;;;;;;;;;;;;;;;3.83;52.74;101057.00;5329921;32;33725;-81
2022/12/21 07:02:47;;;;;;;;;;;;;;;3.44;54.78;101059.59;5312577;32;47880;-80
2022/12/21 07:05:49;;;;;;;;;;;;;;;3.48;53.76;101053.53;5326048;32;32871;-81
2022/12/21 07:08:52;;;;;;;;;;;;;;;3.50;54.43;101048.34;5333628;32;34153;-75
2022/12/21 07:11:54;;;;;;;;;;;;;;;4.19;52.61;101051.75;5322199;32;34246;-78
2022/12/21 07:14:56;;;;;;;;;;;;;;;4.06;52.64;101055.25;5337965;32;33554;-75
2022/12/21 07:17:58;;;;;;;;;;;;;;;3.46;53.69;101044.84;5327008;32;34367;-76
2022/12/21 07:21:03;;;;;;;;;;;;;;;3.94;53.15;101052.66;5334924;32;33802;-75
2022/12/21 07:24:06;;;;;;;;;;;;;;;4.70;50.85;101047.22;5318234;32;33622;-75
2022/12/21 07:27:08;;;;;;;;;;;;;;;5.02;49.66;101054.84;5322939;32;34463;-79
2022/12/21 07:30:10;;;;;;;;;;;;;;;4.47;50.13;101055.13;5325908;32;34137;-79
2022/12/21 07:33:12;;;;;;;;;;;;;;;3.30;54.12;101055.25;5323434;32;33853;-73
2022/12/21 07:36:14;;;;;;;;;;;;;;;3.59;53.62;101050.06;5324580;32;32647;-78
2022/12/21 07:39:16;;;;;;;;;;;;;;;3.74;53.89;101052.69;5327783;32;44598;-76
2022/12/21 07:42:18;;;;;;;;;;;;;;;4.61;51.46;101058.53;5336665;32;32974;-77
2022/12/21 07:45:20;;;;;;;;;;;;;;;5.11;49.21;101059.16;5327918;32;34794;-75
2022/12/21 07:48:22;;;;;;;;;;;;;;;4.54;50.97;101049.00;5322732;32;34528;-80
2022/12/21 07:51:31;;;;;;;;;;;;;;;3.15;54.13;101053.47;5298779;32;34442;-75
2022/12/21 07:54:33;;;;;;;;;;;;;;;3.44;54.38;101053.53;5315433;32;33266;-76
2022/12/21 07:57:35;;;;;;;;;;;;;;;4.23;51.76;101044.78;5335666;32;33520;-73
2022/12/21 08:00:37;;;;;;;;;;;;;;;3.39;54.10;101040.53;5304946;32;33267;-75
2022/12/21 08:03:41;;;;;;;;;;;;;;;4.04;53.19;101039.63;5333857;32;33677;-72
2022/12/21 08:06:45;;;;;;;;;;;;;;;4.94;50.18;101030.59;5323145;32;34194;-76
2022/12/21 08:09:47;;;;;;;;;;;;;;;4.56;51.05;101036.00;5323615;32;44365;-78
2022/12/21 08:12:49;;;;;;;;;;;;;;;3.04;54.87;101034.44;5339737;32;34652;-76
2022/12/21 08:16:04;;;;;;;;;;;;;;;4.41;52.08;101025.66;5327628;32;33252;-78
2022/12/21 08:19:06;;;;;;;;;;;;;;;5.05;49.86;101030.53;5340500;32;33607;-73
2022/12/21 08:22:09;;;;;;;;;;;;;;;4.34;52.16;101025.66;5325066;32;33866;-74
2022/12/21 08:25:11;;;;;;;;;;;;;;;4.45;51.83;101037.78;5330205;32;33333;-75
2022/12/21 08:28:13;;;;;;;;;;;;;;;4.54;51.64;101035.12;5326396;32;33350;-76
2022/12/21 08:31:16;;;;;;;;;;;;;;;5.01;50.47;101031.41;5324439;32;33280;-75
2022/12/21 08:34:19;;;;;;;;;;;;;;;4.79;50.93;101018.53;5332713;32;45905;-76
2022/12/21 08:37:21;;;;;;;;;;;;;;;5.29;49.26;101021.69;5322861;32;33653;-75
2022/12/21 08:40:23;;;;;;;;;;;;;;;4.22;52.47;101028.31;5332897;32;33310;-73
2022/12/21 08:43:24;;;;;;;;;;;;;;;3.66;53.53;101034.47;5326173;32;33270;-73
2022/12/21 08:46:26;;;;;;;;;;;;;;;3.85;54.05;101039.66;5331060;32;34603;-74
2022/12/21 08:49:29;;;;;;;;;;;;;;;3.74;53.78;101032.75;5323686;32;34966;-71
2022/12/21 08:52:31;;;;;;;;;;;;;;;3.98;53.78;101029.22;5300086;32;34684;-71
2022/12/21 08:55:33;;;;;;;;;;;;;;;3.65;54.92;101030.13;5338809;32;32921;-74
2022/12/21 08:58:35;;;;;;;;;;;;;;;4.98;51.24;101015.81;5317948;32;34638;-79
2022/12/21 09:01:37;;;;;;;;;;;;;;;5.53;49.01;101021.47;5318937;32;33173;-86
2022/12/21 09:04:39;;;;;;;;;;;;;;;3.94;53.83;101029.25;5323650;32;33271;-73
2022/12/21 09:07:42;;;;;;;;;;;;;;;3.92;53.63;101024.03;5319237;32;33264;-74
2022/12/21 09:10:43;;;;;;;;;;;;;;;4.04;53.23;101030.94;5332888;32;33151;-74
2022/12/21 09:13:46;;;;;;;;;;;;;;;4.20;53.13;101029.19;5311705;32;34539;-69
2022/12/21 09:16:48;;;;;;;;;;;;;;;3.71;54.12;101024.06;5337131;32;44545;-71
2022/12/21 09:19:52;;;;;;;;;;;;;;;4.87;50.61;101016.75;5324761;32;33175;-75
2022/12/21 09:22:54;;;;;;;;;;;;;;;4.61;51.81;101005.59;5338705;32;33145;-71
2022/12/21 09:25:56;;;;;;;;;;;;;;;4.32;53.18;101010.94;5325446;32;33121;-74
2022/12/21 09:28:58;;;;;;;;;;;;;;;4.53;52.83;100992.63;5327137;32;34355;-73
2022/12/21 09:32:00;;;;;;;;;;;;;;;4.72;52.64;100993.41;5331351;32;34779;-75
2022/12/21 09:35:03;;;;;;;;;;;;;;;4.99;50.96;100991.50;5302493;32;33300;-84
2022/12/21 09:38:05;;;;;;;;;;;;;;;5.14;50.96;100979.22;5340906;32;33179;-79
2022/12/21 09:41:07;;;;;;;;;;;;;;;4.46;52.65;100982.25;5314222;32;34545;-76
2022/12/21 09:44:29;;;;;;;;;;;;;;;4.48;53.55;100980.50;5340826;32;34544;-84
2022/12/21 09:47:34;;;;;;;;;;;;;;;4.78;51.40;100967.31;5306921;32;33288;-75
2022/12/21 09:50:37;;;;;;;;;;;;;;;5.35;50.72;100959.09;5316663;32;33883;-75
2022/12/21 09:53:44;;;;;;;;;;;;;;;4.01;54.13;100950.34;5334144;32;33408;-76
2022/12/21 09:56:48;;;;;;;;;;;;;;;4.92;51.82;100963.75;5328490;32;44358;-73
2022/12/21 09:59:50;;;;;;;;;;;;;;;5.42;50.40;100953.81;5316410;32;33775;-76
2022/12/21 10:02:59;;;;;;;;;;;;;;;5.78;49.55;100945.63;5327176;32;34246;-74
2022/12/21 10:06:20;;;;;;;;;;;;;;;5.89;48.42;100952.47;5313529;32;33364;-76
2022/12/21 10:09:26;;;;;;;;;;;;;;;5.82;49.22;100955.16;5338148;32;44723;-75
2022/12/21 10:12:32;;;;;;;;;;;;;;;5.19;50.82;100953.13;5317537;32;34620;-73
2022/12/21 10:15:34;;;;;;;;;;;;;;;5.78;49.99;100943.88;5337523;32;33176;-72
2022/12/21 10:18:36;;;;;;;;;;;;;;;4.91;51.37;100952.47;5321858;32;33178;-71
2022/12/21 10:21:42;;;;;;;;;;;;;;;5.90;49.28;100942.88;5332390;32;32177;-71
2022/12/21 10:24:51;;;;;;;;;;;;;;;5.48;50.29;100942.47;5329429;32;31929;-71
2022/12/21 10:28:02;;;;;;;;;;;;;;;4.45;52.33;100946.69;5320614;32;44758;-82
2022/12/21 10:31:08;;;;;;;;;;;;;;;4.61;52.96;100943.97;5335555;32;33268;-75
2022/12/21 10:34:13;;;;;;;;;;;;;;;4.95;51.66;100940.28;5324702;32;33620;-80
2022/12/21 10:37:16;;;;;;;;;;;;;;;5.50;50.13;100930.28;5326079;32;33018;-75
2022/12/21 10:40:23;;;;;;;;;;;;;;;5.86;48.90;100931.66;5327149;32;44478;-71
2022/12/21 10:43:25;;;;;;;;;;;;;;;4.69;51.89;100933.50;5324871;32;33299;-76
2022/12/21 10:46:34;;;;;;;;;;;;;;;4.64;51.68;100935.31;5340276;32;34636;-72
2022/12/21 10:49:36;;;;;;;;;;;;;;;4.25;52.89;100934.63;5322160;32;35348;-70
2022/12/21 10:52:42;;;;;;;;;;;;;;;4.10;53.99;100928.63;5319122;32;33528;-76
2022/12/21 10:55:44;;;;;;;;;;;;;;;4.50;52.29;100919.72;5326094;32;33355;-83
2022/12/21 10:58:49;;;;;;;;;;;;;;;5.52;50.31;100906.78;5332035;32;44405;-77
2022/12/21 11:01:52;;;;;;;;;;;;;;;4.01;53.19;100898.31;5307547;32;33213;-72
2022/12/21 11:04:54;;;;;;;;;;;;;;;3.68;55.02;100896.69;5327406;32;34783;-74
2022/12/21 11:08:22;;;;;;;;;;;;;;;4.87;52.65;100902.13;5339316;32;34851;-78
2022/12/21 11:11:29;;;;;;;;;;;;;;;5.00;51.87;100895.09;5323040;32;44707;-73
2022/12/21 11:14:33;;;;;;;;;;;;;;;4.32;52.49;100897.31;5337269;32;33222;-72
2022/12/21 11:17:35;;;;;;;;;;;;;;;4.92;51.74;100893.44;5329183;32;33692;-70
2022/12/21 11:20:37;;;;;;;;;;;;;;;4.91;52.39;100889.09;5326904;32;33279;-69
2022/12/21 11:23:39;;;;;;;;;;;;;;;5.27;51.17;100870.53;5335054;32;33404;-74
2022/12/21 11:26:45;;;;;;;;;;;;;;;5.56;50.31;100875.44;5327005;32;34965;-74
2022/12/21 11:30:08;;;;;;;;;;;;;;;5.83;49.05;100869.06;5336995;32;44576;-70
2022/12/21 11:33:13;;;;;;;;;;;;;;;5.53;50.69;100875.47;5321591;32;33146;-72
2022/12/21 11:36:16;;;;;;;;;;;;;;;4.66;52.33;100878.88;5311786;32;34569;-83
2022/12/21 11:39:20;;;;;;;;;;;;;;;4.24;53.97;100874.78;5336174;32;44311;-75
2022/12/21 11:42:24;;;;;;;;;;;;;;;4.47;53.16;100875.50;5324184;32;34309;-70
2022/12/21 11:45:32;;;;;;;;;;;;;;;4.32;54.15;100876.47;5326804;32;34625;-72
2022/12/21 11:48:52;;;;;;;;;;;;;;;4.06;54.82;100867.94;5325726;32;33954;-69
2022/12/21 11:52:05;;;;;;;;;;;;;;;3.90;55.09;100864.53;5303568;32;35146;-71
2022/12/21 11:55:18;;;;;;;;;;;;;;;4.66;53.68;100863.25;5333051;32;34860;-75
2022/12/21 11:58:35;;;;;;;;;;;;;;;3.56;56.14;100863.81;5324884;32;46288;-71
2022/12/21 12:01:52;;;;;;;;;;;;;;;4.42;53.89;100850.37;5336036;32;33793;-73
2022/12/21 12:05:13;;;;;;;;;;;;;;;4.47;53.79;100846.03;5322410;32;44320;-71
2022/12/21 12:08:21;;;;;;;;;;;;;;;4.28;54.19;100848.75;5325387;32;33784;-70
2022/12/21 12:11:23;;;;;;;;;;;;;;;3.87;55.29;100845.50;5321667;32;44853;-75
2022/12/21 12:14:40;;;;;;;;;;;;;;;4.77;53.04;100829.31;5312046;32;34399;-70
2022/12/21 12:17:48;;;;;;;;;;;;;;;4.60;53.45;100838.09;5336439;32;33209;-71
2022/12/21 12:20:56;;;;;;;;;;;;;;;3.68;55.64;100836.91;5321752;32;44777;-73
2022/12/21 12:24:08;;;;;;;;;;;;;;;4.10;54.90;100834.97;5308771;32;33027;-67
2022/12/21 12:27:13;;;;;;;;;;;;;;;4.24;54.75;100843.56;5338211;32;33256;-71
2022/12/21 12:30:15;;;;;;;;;;;;;;;4.01;56.24;100835.88;5324073;32;33757;-73
2022/12/21 12:33:20;;;;;;;;;;;;;;;4.40;54.91;100839.12;5331814;32;44720;-69
2022/12/21 12:36:31;;;;;;;;;;;;;;;4.13;55.16;100829.75;5324307;32;33075;-70
2022/12/21 12:39:56;;;;;;;;;;;;;;;3.94;55.94;100834.19;5317966;32;33351;-74
2022/12/21 12:43:04;;;;;;;;;;;;;;;4.54;54.17;100826.87;5330120;32;33824;-70
2022/12/21 12:46:21;;;;;;;;;;;;;;;5.24;52.34;100825.41;5319722;32;33191;-72
2022/12/21 12:49:38;;;;;;;;;;;;;;;4.49;53.94;100829.50;5336866;32;45259;-71
2022/12/21 12:52:50;;;;;;;;;;;;;;;4.70;52.81;100823.28;5306167;32;33227;-72
2022/12/21 12:56:10;;;;;;;;;;;;;;;4.13;54.63;100825.44;5323262;32;46727;-73
2022/12/21 12:59:19;;;;;;;;;;;;;;;5.13;51.75;100820.28;5336465;32;34132;-72
2022/12/21 13:02:21;;;;;;;;;;;;;;;4.66;52.37;100820.72;5321499;32;44396;-75
2022/12/21 13:05:29;;;;;;;;;;;;;;;4.99;52.05;100820.41;5338597;32;33293;-72
2022/12/21 13:08:31;;;;;;;;;;;;;;;4.71;53.40;100817.22;5324181;32;33116;-76
2022/12/21 13:11:39;;;;;;;;;;;;;;;4.05;54.89;100815.03;5322601;32;35473;-73
2022/12/21 13:14:50;;;;;;;;;;;;;;;4.91;52.91;100821.38;5333346;32;34920;-74
2022/12/21 13:17:58;;;;;;;;;;;;;;;4.50;53.42;100828.62;5317234;32;43492;-75
2022/12/21 13:21:00;;;;;;;;;;;;;;;3.84;55.49;100822.09;5320013;32;35938;-71
2022/12/21 13:24:06;;;;;;;;;;;;;;;4.89;52.65;100818.75;5327357;32;33148;-79
2022/12/21 13:27:09;;;;;;;;;;;;;;;4.41;54.28;100822.63;5321282;32;33149;-76
2022/12/21 13:30:19;;;;;;;;;;;;;;;4.43;54.42;100826.09;5315785;32;34574;-72
2022/12/21 13:33:20;;;;;;;;;;;;;;;4.48;54.03;100824.31;5321615;32;44758;-73
2022/12/21 13:36:23;;;;;;;;;;;;;;;3.74;56.06;100829.94;5337450;32;34643;-69
2022/12/21 13:39:26;;;;;;;;;;;;;;;4.60;54.37;100817.28;5282948;32;871837;-73
2022/12/21 13:42:39;;;;;;;;;;;;;;;4.62;52.49;100820.72;5335550;32;34702;-71
2022/12/21 13:45:56;;;;;;;;;;;;;;;5.23;52.51;100813.25;5323670;32;33344;-72
2022/12/21 13:49:18;;;;;;;;;;;;;;;4.47;53.36;100806.97;5309791;32;33367;-73
2022/12/21 13:52:23;;;;;;;;;;;;;;;5.20;52.90;100813.25;5320153;32;44466;-73
2022/12/21 13:55:43;;;;;;;;;;;;;;;5.42;51.69;100802.59;5323945;32;32911;-71
2022/12/21 13:58:46;;;;;;;;;;;;;;;4.62;53.51;100804.25;5335792;32;33204;-72
2022/12/21 14:01:54;;;;;;;;;;;;;;;5.25;51.72;100799.31;5313822;32;44538;-74
2022/12/21 14:05:00;;;;;;;;;;;;;;;4.54;54.27;100796.50;5323749;32;33325;-72
2022/12/21 14:08:02;;;;;;;;;;;;;;;4.84;53.57;100789.31;5335979;32;33325;-71
2022/12/21 14:11:17;;;;;;;;;;;;;;;4.01;55.49;100791.69;5322074;32;33351;-72
2022/12/21 14:14:28;;;;;;;;;;;;;;;4.83;54.00;100782.34;5334752;32;45528;-70
2022/12/21 14:17:31;;;;;;;;;;;;;;;3.49;57.16;100776.34;5323138;32;33215;-74
2022/12/21 14:20:33;;;;;;;;;;;;;;;4.29;55.33;100781.94;5325967;32;33223;-80
2022/12/21 14:23:41;;;;;;;;;;;;;;;3.97;56.66;100774.34;5342639;32;34418;-76
2022/12/21 14:26:47;;;;;;;;;;;;;;;2.93;60.11;100772.16;5337028;32;33457;-86
2022/12/21 14:29:49;;;;;;;;;;;;;;;3.88;57.50;100772.69;5346340;32;44447;-87
2022/12/21 14:32:51;;;;;;;;;;;;;;;4.48;55.43;100767.91;5331481;32;33419;-83
2022/12/21 14:36:12;;;;;;;;;;;;;;;4.50;54.53;100762.69;5337904;32;34574;-73
2022/12/21 14:39:33;;;;;;;;;;;;;;;5.03;53.64;100775.25;5337354;32;44869;-72
2022/12/21 14:42:41;;;;;;;;;;;;;;;4.72;54.47;100766.00;5308897;32;34004;-70
2022/12/21 14:45:44;;;;;;;;;;;;;;;5.43;52.23;100770.44;5337226;32;33388;-72
2022/12/21 14:49:04;;;;;;;;;;;;;;;4.56;54.25;100791.28;5322342;32;44478;-71
2022/12/21 14:52:15;;;;;;;;;;;;;;;4.45;55.55;100786.19;5297372;32;31627;-71
2022/12/21 14:55:29;;;;;;;;;;;;;;;5.19;53.01;100796.78;5336267;32;44247;-73
2022/12/21 14:58:32;;;;;;;;;;;;;;;5.03;53.58;100801.28;5312091;32;32852;-69
2022/12/21 15:01:48;;;;;;;;;;;;;;;3.98;58.03;100802.06;5325211;32;34550;-73
2022/12/21 15:04:53;;;;;;;;;;;;;;;5.73;52.36;100794.38;5318943;32;45357;-71
2022/12/21 15:07:55;;;;;;;;;;;;;;;4.72;54.83;100785.06;5330951;32;33575;-79
2022/12/21 15:10:57;;;;;;;;;;;;;;;5.09;54.96;100793.41;5331607;32;33133;-75
2022/12/21 15:14:01;;;;;;;;;;;;;;;5.28;53.78;100793.19;5309701;32;33023;-74
2022/12/21 15:17:03;;;;;;;;;;;;;;;5.57;53.77;100788.53;5340659;32;33317;-73
2022/12/21 15:20:10;;;;;;;;;;;;;;;4.44;55.70;100788.75;5326412;32;35103;-71
2022/12/21 15:23:17;;;;;;;;;;;;;;;3.77;58.50;100787.47;5326971;32;33007;-71
2022/12/21 15:26:26;;;;;;;;;;;;;;;3.57;58.93;100779.75;5321709;32;44512;-74
2022/12/21 15:29:34;;;;;;;;;;;;;;;3.67;58.38;100783.16;5317357;32;34409;-73
2022/12/21 15:32:39;;;;;;;;;;;;;;;4.69;55.93;100769.47;5329250;32;34047;-74
2022/12/21 15:35:42;;;;;;;;;;;;;;;3.94;58.06;100787.38;5319612;32;33901;-72
2022/12/21 15:38:44;;;;;;;;;;;;;;;5.11;54.61;100781.22;5322200;32;33770;-73
2022/12/21 15:41:58;;;;;;;;;;;;;;;5.13;54.51;100776.00;5317638;32;43668;-71
2022/12/21 15:45:14;;;;;;;;;;;;;;;4.75;54.73;100766.81;5330673;32;33223;-74
2022/12/21 15:48:18;;;;;;;;;;;;;;;3.76;58.59;100786.59;5321109;32;36692;-72
2022/12/21 15:51:31;;;;;;;;;;;;;;;3.37;60.10;100791.97;5302380;32;34148;-73
2022/12/21 15:54:33;;;;;;;;;;;;;;;3.74;59.23;100785.75;5333825;32;34283;-73
2022/12/21 15:57:35;;;;;;;;;;;;;;;3.48;60.52;100782.41;5316862;32;34109;-72
2022/12/21 16:00:42;;;;;;;;;;;;;;;3.82;59.51;100782.25;5329665;32;33939;-73
2022/12/21 16:03:44;;;;;;;;;;;;;;;3.29;60.40;100780.75;5322314;32;32014;-72
2022/12/21 16:06:48;;;;;;;;;;;;;;;3.42;60.42;100787.62;5323937;32;34579;-71
2022/12/21 16:09:52;;;;;;;;;;;;;;;3.87;58.91;100793.50;5334945;32;44551;-74
2022/12/21 16:12:55;;;;;;;;;;;;;;;3.70;59.36;100793.56;5323411;32;34466;-73
2022/12/21 16:15:59;;;;;;;;;;;;;;;4.12;58.50;100797.66;5338627;32;34338;-71
2022/12/21 16:19:20;;;;;;;;;;;;;;;4.65;56.98;100793.81;5318782;32;34313;-70